Etusivu
METAR-TAF:

METAR-TAF

Lentoasemat :

Nancy, Ranska

Leveyspiiri: 48-35N, Pituuspiiri: 005-58E, korkeus merenpinnasta: 336 m

Tämänhetkinen sää

Tämä raportti tehtiin 44 minuuttia sitten, kello 20.00 UTC
Tuuli 11 kn pohjoisen/luoteesta
Lämpötila 11°C
Kosteus 82%
Ilmanpaine 1021 hPa
Näkyvyys 10 km tai enemmän
Hajanaisia pilviä 1800 ft:n korkeudessa
Hajonneita pilviä 2500 ft:n korkeudessa
Hajonneita pilviä 3800 ft:n korkeudessa

METAR: LFSO 232000Z AUTO 33011KT 9999 SCT018 BKN025 BKN038 11/08 Q1021

Aika: 22:44 (20:44 UTC)


TAF: puuttuu

Säähavainnot ja -ennusteet yli 4000 lentoasemalta (METAR- ja TAF-raportit).

Käytössä olevat sääasemat on merkitty karttaan keltaisilla ja punaisilla pisteillä.

Aseta hiiri pisteen päälle nähdäksesi sääaseman nimen.

Klikkaa sitten nähdäksesi säähavainnot ja -ennusteet.

Kartan vaihtaminen: klikkaa mustalla rastilla varustettuja vihreitä pisteitä, niin voit zoomata sisään; viivalla varustettua vihreää pistettä, niin voit zoomata ulos tai vihreitä nuolia, niin pääset viereisille kartoille.


METAR-TAF: